createdAt,value
2022-11-16T00:06:02.457Z,3.30
2022-11-16T00:08:31.279Z,4.07
2022-11-16T00:11:20.299Z,3.50
2022-11-16T00:14:06.804Z,4.30
2022-11-16T00:16:52.787Z,5.40
2022-11-16T00:19:38.407Z,5.37
2022-11-16T00:24:53.783Z,3.90
2022-11-16T00:27:20.990Z,4.43
2022-11-16T00:29:48.114Z,4.30
2022-11-16T00:32:15.265Z,3.77
2022-11-16T00:34:42.488Z,3.43
2022-11-16T00:37:09.571Z,4.43
2022-11-16T00:39:39.656Z,3.67
2022-11-16T00:42:09.885Z,4.10
2022-11-16T00:44:37.039Z,3.23
2022-11-16T00:47:13.503Z,3.57
2022-11-16T00:49:40.707Z,3.43
2022-11-16T00:55:38.773Z,4.10
2022-11-16T00:58:05.965Z,3.17
2022-11-16T01:00:33.142Z,4.37
2022-11-16T01:03:09.687Z,3.07
2022-11-16T01:05:37.078Z,3.63
2022-11-16T01:08:04.498Z,3.00
2022-11-16T01:10:32.155Z,3.43
2022-11-16T01:13:03.821Z,3.70
2022-11-16T01:15:31.007Z,4.40
2022-11-16T01:18:09.383Z,3.40
2022-11-16T01:20:36.471Z,3.87
2022-11-16T01:23:03.656Z,3.33
2022-11-16T01:25:46.179Z,3.27
2022-11-16T01:28:25.587Z,4.13
2022-11-16T01:30:52.674Z,3.93
2022-11-16T01:33:38.715Z,3.80
2022-11-16T01:36:18.321Z,3.43
2022-11-16T01:38:47.125Z,3.23
2022-11-16T01:41:17.230Z,4.03
2022-11-16T01:43:55.033Z,3.40
2022-11-16T01:46:23.121Z,3.10
2022-11-16T01:48:57.629Z,3.40
2022-11-16T01:51:29.742Z,3.53
2022-11-16T01:54:13.144Z,3.90
2022-11-16T01:56:56.436Z,5.87
2022-11-16T02:02:41.226Z,4.33
2022-11-16T02:05:14.798Z,4.10
2022-11-16T02:08:09.627Z,3.50
2022-11-16T02:11:18.891Z,3.63
2022-11-16T02:14:13.702Z,5.30
2022-11-16T02:17:17.638Z,3.60
2022-11-16T02:20:06.687Z,4.03
2022-11-16T02:23:06.168Z,5.63
2022-11-16T02:25:53.094Z,5.00
2022-11-16T02:28:37.156Z,4.90
2022-11-16T02:32:13.764Z,4.10
2022-11-16T02:34:46.355Z,4.03
2022-11-16T02:37:18.380Z,4.60
2022-11-16T02:39:54.435Z,6.20
2022-11-16T02:42:42.188Z,4.93
2022-11-16T02:45:35.563Z,4.40
2022-11-16T02:54:51.280Z,4.70
2022-11-16T02:57:37.459Z,4.50
2022-11-16T03:00:54.008Z,4.40
2022-11-16T03:07:27.587Z,4.47
2022-11-16T03:12:42.152Z,4.57
2022-11-16T03:15:21.247Z,11.80
2022-11-16T03:17:53.980Z,5.30
2022-11-16T03:21:05.379Z,5.90
2022-11-16T03:23:54.742Z,5.10
2022-11-16T03:30:51.688Z,6.67
2022-11-16T03:33:48.689Z,5.77
2022-11-16T03:36:41.899Z,4.70
2022-11-16T03:39:39.685Z,5.07
2022-11-16T03:42:13.966Z,4.17
2022-11-16T03:44:55.242Z,4.10
2022-11-16T03:50:39.015Z,3.50
2022-11-16T03:53:15.408Z,3.10
2022-11-16T03:59:19.875Z,5.57
2022-11-16T04:01:47.095Z,4.70
2022-11-16T04:04:36.744Z,5.47
2022-11-16T04:23:34.515Z,5.20
2022-11-16T04:26:11.834Z,4.50
2022-11-16T04:28:39.719Z,5.70
2022-11-16T04:31:25.433Z,8.37
2022-11-16T04:34:31.134Z,5.20
2022-11-16T04:37:20.738Z,7.60
2022-11-16T04:39:47.867Z,9.27
2022-11-16T04:42:19.741Z,5.63
2022-11-16T04:45:14.747Z,4.53
2022-11-16T04:47:41.954Z,5.87
2022-11-16T04:50:16.853Z,5.60
2022-11-16T04:56:28.848Z,5.20
2022-11-16T04:59:30.663Z,5.23
2022-11-16T05:02:15.538Z,6.30
2022-11-16T05:05:22.318Z,5.30
2022-11-16T05:08:09.239Z,4.43
2022-11-16T05:10:43.933Z,4.83
2022-11-16T05:13:21.807Z,5.37
2022-11-16T05:15:49.105Z,6.63
2022-11-16T05:18:35.455Z,5.40
2022-11-16T05:21:09.213Z,4.80
2022-11-16T05:24:03.819Z,7.50
2022-11-16T05:26:36.949Z,7.40
2022-11-16T05:29:15.924Z,6.47
2022-11-16T05:32:20.645Z,6.97
2022-11-16T05:38:20.753Z,6.33
2022-11-16T05:46:24.735Z,6.57
2022-11-16T05:48:53.344Z,6.83
2022-11-16T05:52:12.312Z,16.57
2022-11-16T05:54:51.706Z,6.47
2022-11-16T06:04:28.224Z,6.87
2022-11-16T06:07:41.681Z,11.83
2022-11-16T06:34:52.288Z,11.53
2022-11-16T06:37:19.457Z,11.00
2022-11-16T06:40:06.112Z,19.33
2022-11-16T06:42:35.861Z,41.07
2022-11-16T06:45:06.415Z,8.10
2022-11-16T06:47:41.919Z,38.50
2022-11-16T06:50:21.072Z,7.97
2022-11-16T06:53:16.901Z,12.17
2022-11-16T06:55:50.526Z,13.80
2022-11-16T06:58:26.988Z,57.50
2022-11-16T07:04:04.430Z,10.37
2022-11-16T07:06:48.020Z,44.90
2022-11-16T07:09:15.701Z,19.77
2022-11-16T07:12:00.310Z,23.70
2022-11-16T07:14:36.586Z,11.47
2022-11-16T07:17:12.806Z,30.57
2022-11-16T07:19:40.340Z,8.43
2022-11-16T07:22:17.594Z,17.77
2022-11-16T07:24:56.847Z,14.80
2022-11-16T07:27:34.203Z,28.23
2022-11-16T07:30:02.285Z,25.30
2022-11-16T07:32:40.101Z,23.33
2022-11-16T07:35:26.276Z,11.50
2022-11-16T07:38:02.715Z,34.03
2022-11-16T07:41:00.917Z,15.03
2022-11-16T07:43:31.944Z,22.27
2022-11-16T07:46:44.681Z,74.17
2022-11-16T07:49:15.199Z,9.33
2022-11-16T07:52:10.326Z,24.67
2022-11-16T07:54:43.253Z,20.83
2022-11-16T07:57:54.801Z,12.30
2022-11-16T08:00:31.676Z,9.93
2022-11-16T08:02:58.838Z,10.73
2022-11-16T08:06:13.364Z,8.57
2022-11-16T08:08:40.641Z,11.50
2022-11-16T08:11:12.680Z,8.17
2022-11-16T08:13:41.247Z,8.97
2022-11-16T08:16:37.464Z,8.47
2022-11-16T08:19:19.253Z,11.67
2022-11-16T08:21:47.930Z,7.70
2022-11-16T08:24:40.978Z,9.23
2022-11-16T08:27:08.388Z,8.90
2022-11-16T08:30:00.623Z,7.57
2022-11-16T08:32:30.074Z,7.57
2022-11-16T08:35:03.446Z,7.83
2022-11-16T08:37:32.731Z,8.37
2022-11-16T08:40:50.969Z,9.97
2022-11-16T08:43:29.329Z,7.63
2022-11-16T09:18:40.112Z,8.90
2022-11-16T09:21:07.390Z,10.47
2022-11-16T09:23:45.040Z,9.10
2022-11-16T09:26:13.835Z,7.70
2022-11-16T09:28:44.853Z,10.77
2022-11-16T09:31:12.444Z,8.97
2022-11-16T09:34:03.676Z,14.20
2022-11-16T09:36:31.540Z,10.13
2022-11-16T09:39:30.108Z,10.10
2022-11-16T09:42:32.956Z,16.50
2022-11-16T09:45:33.741Z,9.70
2022-11-16T09:48:16.217Z,12.60
2022-11-16T09:50:52.805Z,11.37
2022-11-16T09:53:38.507Z,14.07
2022-11-16T09:56:37.037Z,12.80
2022-11-16T10:03:48.749Z,11.70
2022-11-16T10:15:44.794Z,8.20
2022-11-16T10:59:03.797Z,8.80
2022-11-16T11:01:41.405Z,8.50
2022-11-16T11:04:27.008Z,8.10
2022-11-16T11:07:15.027Z,7.77
2022-11-16T11:09:52.723Z,6.87
2022-11-16T11:12:45.179Z,7.27
2022-11-16T11:15:33.171Z,8.90
2022-11-16T11:18:51.654Z,7.40
2022-11-16T11:21:30.651Z,8.60
2022-11-16T11:24:29.298Z,7.27
2022-11-16T11:27:00.741Z,8.00
2022-11-16T11:29:59.831Z,6.97
2022-11-16T11:36:57.096Z,7.50
2022-11-16T11:39:40.176Z,6.80
2022-11-16T11:50:49.309Z,5.30
2022-11-16T11:53:52.984Z,6.90
2022-11-16T12:00:57.799Z,6.80
2022-11-16T12:03:55.460Z,5.63
2022-11-16T12:06:34.702Z,7.43
2022-11-16T12:09:59.406Z,4.93
2022-11-16T12:13:31.318Z,6.27
2022-11-16T12:16:49.884Z,6.10
2022-11-16T12:19:59.615Z,6.23
2022-11-16T12:23:05.239Z,6.10
2022-11-16T12:26:06.037Z,5.67
2022-11-16T12:33:21.333Z,8.50
2022-11-16T12:45:22.041Z,5.97
2022-11-16T12:47:49.753Z,7.17
2022-11-16T12:51:32.000Z,5.27
2022-11-16T12:55:19.072Z,11.33
2022-11-16T13:08:52.922Z,10.07
2022-11-16T13:11:53.675Z,9.80
2022-11-16T13:14:43.284Z,12.43
2022-11-16T13:17:27.262Z,12.57
2022-11-16T13:20:28.961Z,11.20
2022-11-16T13:23:19.555Z,12.90
2022-11-16T13:26:10.772Z,13.50
2022-11-16T13:29:45.754Z,12.17
2022-11-16T13:32:41.621Z,13.37
2022-11-16T13:35:25.562Z,14.20
2022-11-16T13:37:52.796Z,12.87
2022-11-16T13:40:38.487Z,11.67
2022-11-16T13:43:18.243Z,13.13
2022-11-16T13:45:58.135Z,16.17
2022-11-16T13:48:53.318Z,12.67
2022-11-16T13:51:31.908Z,15.80
2022-11-16T13:54:45.827Z,13.80
2022-11-16T13:57:44.808Z,16.20
2022-11-16T14:00:23.850Z,12.27
2022-11-16T14:03:16.901Z,14.37
2022-11-16T14:05:47.050Z,12.53
2022-11-16T14:08:22.956Z,12.97
2022-11-16T14:10:50.349Z,12.50
2022-11-16T14:13:47.496Z,12.90
2022-11-16T14:16:31.053Z,13.63
2022-11-16T14:19:43.157Z,12.43
2022-11-16T14:22:54.476Z,12.10
2022-11-16T14:25:46.427Z,10.30
2022-11-16T14:28:19.940Z,10.40
2022-11-16T14:31:35.548Z,10.03
2022-11-16T14:34:17.479Z,11.47
2022-11-16T14:45:03.259Z,10.90
2022-11-16T14:47:36.809Z,9.63
2022-11-16T14:50:39.692Z,11.10
2022-11-16T14:53:35.742Z,12.53
2022-11-16T14:56:37.188Z,12.30
2022-11-16T14:59:07.662Z,13.17
2022-11-16T15:02:27.340Z,12.00
2022-11-16T15:05:01.640Z,17.43
2022-11-16T15:07:32.804Z,13.13
2022-11-16T15:10:03.738Z,14.07
2022-11-16T15:12:51.327Z,12.27
2022-11-16T15:15:26.836Z,12.10
2022-11-16T15:18:27.889Z,13.50
2022-11-16T15:20:55.426Z,12.60
2022-11-16T15:23:31.201Z,12.30
2022-11-16T15:26:00.389Z,12.40
2022-11-16T15:28:34.453Z,12.37
2022-11-16T15:31:31.775Z,12.73
2022-11-16T15:34:01.695Z,14.23
2022-11-16T15:36:41.292Z,12.83
2022-11-16T15:39:34.283Z,15.47
2022-11-16T15:42:04.245Z,13.37
2022-11-16T15:44:37.579Z,54.70
2022-11-16T15:47:08.468Z,14.03
2022-11-16T15:49:41.381Z,17.70
2022-11-16T15:52:09.439Z,14.53
2022-11-16T15:55:07.309Z,14.07
2022-11-16T15:58:25.289Z,15.57
2022-11-16T16:01:54.194Z,15.60
2022-11-16T16:04:32.922Z,12.87
2022-11-16T16:07:05.569Z,14.23
2022-11-16T16:10:34.123Z,16.13
2022-11-16T16:13:30.196Z,31.10
2022-11-16T16:16:30.422Z,19.37
2022-11-16T16:19:36.452Z,16.07
2022-11-16T16:22:32.632Z,13.20
2022-11-16T16:25:32.251Z,18.90
2022-11-16T16:28:16.285Z,16.20
2022-11-16T16:30:45.785Z,17.07
2022-11-16T16:33:19.782Z,17.60
2022-11-16T16:36:36.958Z,16.60
2022-11-16T16:38:46.533Z,16.30
2022-11-16T16:41:42.291Z,15.80
2022-11-16T16:45:17.977Z,17.03
2022-11-16T16:47:47.887Z,19.23
2022-11-16T16:50:40.426Z,16.93
2022-11-16T16:53:52.481Z,18.73
2022-11-16T16:56:34.950Z,15.47
2022-11-16T16:59:02.363Z,17.03
2022-11-16T17:01:31.976Z,15.83
2022-11-16T17:03:59.321Z,17.80
2022-11-16T17:06:46.777Z,13.77
2022-11-16T17:09:14.591Z,22.67
2022-11-16T17:11:47.197Z,18.23
2022-11-16T17:14:31.091Z,19.00
2022-11-16T17:20:41.377Z,16.73
2022-11-16T17:26:29.693Z,18.93
2022-11-16T17:31:51.894Z,14.60
2022-11-16T17:34:22.213Z,20.13
2022-11-16T17:36:50.846Z,28.87
2022-11-16T17:39:34.332Z,16.93
2022-11-16T17:45:06.848Z,18.00
2022-11-16T17:47:43.639Z,17.03
2022-11-16T17:50:19.907Z,17.47
2022-11-16T17:53:09.301Z,16.10
2022-11-16T17:58:49.823Z,17.80
2022-11-16T18:01:58.232Z,21.47
2022-11-16T18:04:38.818Z,15.13
2022-11-16T18:13:48.226Z,17.80
2022-11-16T18:16:21.072Z,18.27
2022-11-16T18:22:39.722Z,21.43
2022-11-16T18:25:27.261Z,16.57
2022-11-16T18:27:55.595Z,19.40
2022-11-16T18:30:28.265Z,20.67
2022-11-16T18:33:17.644Z,21.23
2022-11-16T18:35:45.266Z,22.33
2022-11-16T18:38:13.311Z,23.60
2022-11-16T18:40:40.874Z,23.47
2022-11-16T18:43:14.385Z,21.93
2022-11-16T18:45:41.640Z,25.20
2022-11-16T18:48:21.114Z,20.93
2022-11-16T18:50:48.417Z,22.20
2022-11-16T18:53:15.637Z,22.40
2022-11-16T18:55:57.460Z,21.90
2022-11-16T19:01:37.142Z,18.50
2022-11-16T19:04:49.428Z,17.07
2022-11-16T19:07:30.073Z,18.83
2022-11-16T19:10:32.387Z,17.83
2022-11-16T19:16:31.797Z,18.87
2022-11-16T19:19:39.894Z,29.57
2022-11-16T19:25:08.353Z,26.83
2022-11-16T19:31:08.710Z,45.72
2022-11-16T19:36:58.514Z,21.13
2022-11-16T19:43:35.662Z,27.90
2022-11-16T19:46:21.801Z,26.67
2022-11-16T19:49:10.140Z,50.97
2022-11-16T19:51:43.734Z,47.13
2022-11-16T19:54:17.532Z,32.57
2022-11-16T19:56:55.261Z,47.57
2022-11-16T20:00:08.150Z,23.07
2022-11-16T20:02:44.014Z,41.30
2022-11-16T20:05:22.547Z,23.13
2022-11-16T20:08:19.764Z,25.23
2022-11-16T20:10:54.812Z,25.50
2022-11-16T20:13:55.013Z,29.63
2022-11-16T20:17:08.176Z,31.00
2022-11-16T20:55:14.891Z,20.57
2022-11-16T20:57:48.077Z,18.10
2022-11-16T21:00:24.247Z,20.43
2022-11-16T21:03:01.649Z,25.17
2022-11-16T21:05:48.807Z,18.23
2022-11-16T21:08:43.832Z,22.70
2022-11-16T21:11:51.308Z,17.83
2022-11-16T21:14:33.468Z,17.90
2022-11-16T21:20:26.246Z,18.63
2022-11-16T21:23:21.594Z,20.90
2022-11-16T21:29:03.529Z,18.90
2022-11-16T21:31:36.268Z,22.60
2022-11-16T21:46:06.133Z,21.83
2022-11-16T21:48:56.988Z,20.27
2022-11-16T21:51:43.087Z,60.90
2022-11-16T21:57:43.907Z,14.00
2022-11-16T22:03:08.602Z,14.33
2022-11-16T22:06:54.765Z,17.63
2022-11-16T22:16:24.306Z,18.47
2022-11-16T22:21:25.194Z,21.83
2022-11-16T22:22:25.298Z,44.27
2022-11-16T22:25:00.486Z,27.40
2022-11-16T22:30:36.208Z,26.83
2022-11-16T22:33:17.710Z,56.43
2022-11-16T22:45:14.086Z,18.30
2022-11-16T22:48:31.347Z,21.70
2022-11-16T22:51:29.836Z,17.93
2022-11-16T22:53:59.807Z,52.97
2022-11-16T22:56:27.881Z,42.10
2022-11-16T23:01:48.646Z,15.57
2022-11-16T23:04:47.208Z,13.23
2022-11-16T23:16:38.476Z,16.23
2022-11-16T23:22:40.594Z,12.67
2022-11-16T23:25:54.521Z,10.00
2022-11-16T23:28:40.094Z,29.80
2022-11-16T23:31:07.354Z,31.80
2022-11-16T23:33:47.901Z,34.83
2022-11-16T23:36:15.245Z,12.70
2022-11-16T23:38:42.519Z,39.73
2022-11-16T23:41:29.422Z,30.93
2022-11-16T23:46:48.257Z,21.23
2022-11-16T23:49:24.703Z,27.90
2022-11-16T23:54:48.609Z,55.80
2022-11-16T23:57:22.062Z,122.37
